Time;durP1;ratioP1;P1;durP2;ratioP2;P2;SDS_P1;SDS_P2;PMS_P1;PMS_P2;Temp;Humidity;BMP_temperature;BMP_pressure;BME280_temperature;BME280_humidity;BME280_pressure;Samples;Min_cycle;Max_cycle;Signal;HPM_P1;HPM_P2
2023/09/01 00:01:25;;;;;;;11.40;10.90;;;;;;;;;;5088116;28;20271;-61
2023/09/01 00:03:51;;;;;;;11.52;11.02;;;;;;;;;;5091059;28;20052;-62
2023/09/01 00:06:17;;;;;;;11.43;10.93;;;;;;;;;;5083201;28;20107;-62
2023/09/01 00:08:43;;;;;;;11.45;10.95;;;;;;;;;;5085136;28;20075;-62
2023/09/01 00:11:09;;;;;;;11.48;10.98;;;;;;;;;;5086474;28;20539;-61
2023/09/01 00:13:34;;;;;;;11.35;10.85;;;;;;;;;;5086278;28;20089;-62
2023/09/01 00:15:59;;;;;;;11.32;10.82;;;;;;;;;;5085133;28;20073;-61
2023/09/01 00:18:25;;;;;;;11.40;10.90;;;;;;;;;;5083087;28;20494;-61
2023/09/01 00:20:50;;;;;;;11.40;10.90;;;;;;;;;;5086827;28;20021;-62
2023/09/01 00:23:16;;;;;;;11.30;10.80;;;;;;;;;;5083913;28;20074;-62
2023/09/01 00:25:41;;;;;;;11.57;11.07;;;;;;;;;;5083076;28;20022;-62
2023/09/01 00:28:07;;;;;;;11.30;10.80;;;;;;;;;;5080894;28;20028;-62
2023/09/01 00:30:32;;;;;;;11.57;11.07;;;;;;;;;;5085418;28;20020;-62
2023/09/01 00:32:57;;;;;;;11.70;11.20;;;;;;;;;;5090673;28;20016;-62
2023/09/01 00:35:23;;;;;;;11.40;10.90;;;;;;;;;;5086673;28;20023;-63
2023/09/01 00:37:50;;;;;;;11.18;10.68;;;;;;;;;;5084064;28;20131;-62
2023/09/01 00:40:15;;;;;;;11.50;11.00;;;;;;;;;;5086571;28;20031;-61
2023/09/01 00:42:40;;;;;;;11.60;11.10;;;;;;;;;;5086103;28;20024;-61
2023/09/01 00:45:06;;;;;;;11.60;11.10;;;;;;;;;;5088214;28;20375;-60
2023/09/01 00:47:31;;;;;;;11.38;10.88;;;;;;;;;;5087647;28;20028;-61
2023/09/01 00:49:56;;;;;;;10.98;10.48;;;;;;;;;;5086070;28;20058;-60
2023/09/01 00:52:22;;;;;;;11.27;10.77;;;;;;;;;;5082858;28;20020;-62
2023/09/01 00:54:48;;;;;;;11.48;10.98;;;;;;;;;;5082803;28;20020;-61
2023/09/01 00:57:13;;;;;;;11.13;10.63;;;;;;;;;;5090080;28;20035;-60
2023/09/01 00:59:38;;;;;;;11.73;11.23;;;;;;;;;;5085274;28;20024;-61
2023/09/01 01:02:04;;;;;;;11.27;10.77;;;;;;;;;;5080487;28;20015;-61
2023/09/01 01:04:31;;;;;;;11.30;10.80;;;;;;;;;;5082416;28;20098;-61
2023/09/01 01:07:06;;;;;;;11.45;10.95;;;;;;;;;;5077856;28;20073;-61
2023/09/01 01:09:37;;;;;;;11.60;11.10;;;;;;;;;;5081980;28;20123;-61
2023/09/01 01:12:21;;;;;;;11.30;10.80;;;;;;;;;;5083893;28;20058;-61
2023/09/01 01:14:49;;;;;;;11.23;10.73;;;;;;;;;;5082419;28;20020;-62
2023/09/01 01:17:18;;;;;;;11.35;10.85;;;;;;;;;;5079337;28;20017;-61
2023/09/01 01:19:59;;;;;;;11.20;10.70;;;;;;;;;;5087374;28;21202;-61
2023/09/01 01:22:38;;;;;;;11.15;10.65;;;;;;;;;;5080027;28;20063;-62
2023/09/01 01:25:05;;;;;;;11.43;10.93;;;;;;;;;;5087536;28;20019;-62
2023/09/01 01:27:30;;;;;;;11.10;10.60;;;;;;;;;;5086691;28;20084;-61
2023/09/01 01:29:56;;;;;;;11.13;10.63;;;;;;;;;;5082529;28;20024;-62
2023/09/01 01:32:21;;;;;;;11.50;11.00;;;;;;;;;;5084816;28;20415;-62
2023/09/01 01:34:51;;;;;;;11.18;10.68;;;;;;;;;;5085663;28;20020;-62
2023/09/01 01:37:27;;;;;;;11.65;11.15;;;;;;;;;;5082864;28;20065;-62
2023/09/01 01:39:53;;;;;;;11.30;10.80;;;;;;;;;;5082332;28;20012;-61
2023/09/01 01:42:19;;;;;;;11.30;10.80;;;;;;;;;;5078377;28;20473;-61
2023/09/01 01:44:48;;;;;;;11.32;10.82;;;;;;;;;;5085440;28;20095;-62
2023/09/01 01:47:14;;;;;;;11.40;10.90;;;;;;;;;;5080917;28;20016;-61
2023/09/01 01:49:39;;;;;;;11.25;10.75;;;;;;;;;;5086343;28;20113;-62
2023/09/01 01:52:05;;;;;;;11.27;10.77;;;;;;;;;;5082435;28;20036;-61
2023/09/01 01:54:31;;;;;;;11.23;10.73;;;;;;;;;;5089360;28;20028;-61
2023/09/01 01:56:56;;;;;;;11.75;11.25;;;;;;;;;;5086096;28;20458;-61
2023/09/01 01:59:22;;;;;;;10.98;10.48;;;;;;;;;;5087503;28;20070;-61
2023/09/01 02:01:47;;;;;;;11.25;10.75;;;;;;;;;;5088927;28;20028;-62
2023/09/01 02:04:13;;;;;;;11.45;10.95;;;;;;;;;;5091251;28;20044;-60
2023/09/01 02:06:39;;;;;;;11.45;10.95;;;;;;;;;;5089289;28;20027;-61
2023/09/01 02:09:09;;;;;;;11.20;10.70;;;;;;;;;;5086961;28;20018;-61
2023/09/01 02:11:35;;;;;;;11.45;10.95;;;;;;;;;;5084682;28;20483;-62
2023/09/01 02:14:00;;;;;;;11.70;11.20;;;;;;;;;;5083476;28;20028;-61
2023/09/01 02:16:25;;;;;;;11.15;10.65;;;;;;;;;;5087843;28;20044;-61
2023/09/01 02:18:51;;;;;;;11.35;10.85;;;;;;;;;;5087919;28;20035;-61
2023/09/01 02:21:20;;;;;;;11.80;11.30;;;;;;;;;;5082697;28;20082;-62
2023/09/01 02:23:45;;;;;;;11.15;10.65;;;;;;;;;;5083248;28;20024;-61
2023/09/01 02:26:16;;;;;;;11.48;10.98;;;;;;;;;;5083186;28;20086;-61
2023/09/01 02:28:41;;;;;;;11.60;11.10;;;;;;;;;;5083185;28;20052;-62
2023/09/01 02:31:09;;;;;;;11.40;10.90;;;;;;;;;;5083511;28;20483;-62
2023/09/01 02:33:35;;;;;;;11.55;11.05;;;;;;;;;;5084688;28;20152;-62
2023/09/01 02:36:19;;;;;;;11.40;10.90;;;;;;;;;;5089679;28;20714;-62
2023/09/01 02:38:44;;;;;;;11.30;10.80;;;;;;;;;;5090216;28;20023;-61
2023/09/01 02:41:09;;;;;;;11.45;10.95;;;;;;;;;;5090520;28;20368;-61
2023/09/01 02:43:34;;;;;;;11.63;11.13;;;;;;;;;;5088868;28;20475;-62
2023/09/01 02:46:00;;;;;;;11.50;11.00;;;;;;;;;;5089114;28;20024;-61
2023/09/01 02:48:26;;;;;;;11.63;11.13;;;;;;;;;;5084257;28;20157;-61
2023/09/01 02:50:51;;;;;;;11.02;10.52;;;;;;;;;;5089267;28;20313;-62
2023/09/01 02:53:16;;;;;;;11.50;11.00;;;;;;;;;;5087729;28;20024;-61
2023/09/01 02:55:42;;;;;;;11.02;10.52;;;;;;;;;;5087971;28;20064;-62
2023/09/01 02:58:07;;;;;;;11.55;11.05;;;;;;;;;;5086015;28;20022;-61
2023/09/01 03:00:32;;;;;;;11.27;10.77;;;;;;;;;;5088484;28;20020;-61
2023/09/01 03:02:57;;;;;;;11.43;10.93;;;;;;;;;;5087003;28;20109;-62
2023/09/01 03:05:24;;;;;;;12.43;11.82;;;;;;;;;;5081026;28;20024;-62
2023/09/01 03:07:50;;;;;;;11.43;10.93;;;;;;;;;;5082813;28;20020;-61
2023/09/01 03:10:15;;;;;;;11.65;11.15;;;;;;;;;;5087740;28;20016;-61
2023/09/01 03:12:40;;;;;;;11.38;10.88;;;;;;;;;;5086219;28;20031;-61
2023/09/01 03:15:07;;;;;;;11.18;10.68;;;;;;;;;;5086133;28;20023;-61
2023/09/01 03:17:32;;;;;;;11.80;11.30;;;;;;;;;;5084077;28;20055;-61
2023/09/01 03:19:57;;;;;;;11.48;10.98;;;;;;;;;;5088201;28;20435;-62
2023/09/01 03:22:23;;;;;;;11.48;10.98;;;;;;;;;;5087094;28;20081;-62
2023/09/01 03:24:50;;;;;;;11.52;11.02;;;;;;;;;;5083897;28;20118;-61
2023/09/01 03:27:16;;;;;;;11.43;10.93;;;;;;;;;;5088983;28;20490;-62
2023/09/01 03:29:43;;;;;;;11.25;10.75;;;;;;;;;;5087909;28;20020;-62
2023/09/01 03:32:10;;;;;;;11.65;11.15;;;;;;;;;;5090786;28;20106;-62
2023/09/01 03:34:36;;;;;;;11.48;10.98;;;;;;;;;;5087414;28;20024;-63
2023/09/01 03:37:02;;;;;;;11.93;11.43;;;;;;;;;;5085288;28;20102;-62
2023/09/01 03:39:27;;;;;;;11.60;11.10;;;;;;;;;;5087396;28;20039;-62
2023/09/01 03:41:52;;;;;;;11.23;10.73;;;;;;;;;;5086912;28;20503;-62
2023/09/01 03:44:18;;;;;;;11.70;11.20;;;;;;;;;;5084662;28;20036;-62
2023/09/01 03:46:43;;;;;;;11.30;10.80;;;;;;;;;;5087933;28;20479;-62
2023/09/01 03:49:08;;;;;;;11.63;11.13;;;;;;;;;;5089396;28;20039;-62
2023/09/01 03:51:34;;;;;;;11.20;10.70;;;;;;;;;;5085977;28;20024;-62
2023/09/01 03:53:59;;;;;;;11.50;11.00;;;;;;;;;;5088848;28;20260;-62
2023/09/01 03:56:24;;;;;;;11.55;11.05;;;;;;;;;;5101159;28;20505;-62
2023/09/01 03:58:50;;;;;;;11.63;11.13;;;;;;;;;;5080013;28;20119;-61
2023/09/01 04:01:15;;;;;;;11.30;10.80;;;;;;;;;;5082060;28;20028;-61
2023/09/01 04:03:41;;;;;;;12.63;12.02;;;;;;;;;;5085704;28;20052;-61
2023/09/01 04:06:07;;;;;;;11.85;11.35;;;;;;;;;;5084327;28;20024;-62
2023/09/01 04:08:34;;;;;;;11.40;10.90;;;;;;;;;;5085920;28;20023;-62
2023/09/01 04:11:01;;;;;;;11.38;10.88;;;;;;;;;;5082686;28;20052;-61
2023/09/01 04:13:26;;;;;;;11.63;11.13;;;;;;;;;;5080171;28;20024;-61
2023/09/01 04:15:51;;;;;;;11.43;10.93;;;;;;;;;;5087475;28;20120;-61
2023/09/01 04:18:17;;;;;;;11.50;11.00;;;;;;;;;;5089887;28;20047;-61
2023/09/01 04:20:46;;;;;;;11.07;10.57;;;;;;;;;;5083962;28;20128;-62
2023/09/01 04:23:11;;;;;;;11.57;11.07;;;;;;;;;;5083610;28;20394;-62
2023/09/01 04:25:38;;;;;;;11.65;11.15;;;;;;;;;;5087749;28;20099;-62
2023/09/01 04:28:03;;;;;;;11.93;11.43;;;;;;;;;;5088891;28;20034;-63
2023/09/01 04:30:29;;;;;;;11.68;11.18;;;;;;;;;;5079590;28;20104;-64
2023/09/01 04:32:55;;;;;;;11.75;11.25;;;;;;;;;;5083556;28;20024;-63
2023/09/01 04:35:20;;;;;;;11.70;11.20;;;;;;;;;;5082659;28;20939;-63
2023/09/01 04:37:45;;;;;;;11.98;11.48;;;;;;;;;;5079806;28;20016;-64
2023/09/01 04:40:11;;;;;;;11.23;10.73;;;;;;;;;;5084925;28;20487;-64
2023/09/01 04:42:36;;;;;;;11.40;10.90;;;;;;;;;;5085981;28;20085;-64
2023/09/01 04:45:03;;;;;;;11.77;11.27;;;;;;;;;;5084784;28;20081;-64
2023/09/01 04:47:28;;;;;;;11.23;10.73;;;;;;;;;;5084990;28;20030;-63
2023/09/01 04:49:54;;;;;;;11.32;10.82;;;;;;;;;;5080879;28;20452;-63
2023/09/01 04:52:19;;;;;;;11.38;10.88;;;;;;;;;;5082660;28;20051;-65
2023/09/01 04:54:44;;;;;;;11.70;11.20;;;;;;;;;;5083533;28;20517;-63
2023/09/01 04:57:09;;;;;;;11.80;11.30;;;;;;;;;;5082578;28;20265;-63
2023/09/01 04:59:35;;;;;;;11.60;11.10;;;;;;;;;;5084673;28;20067;-65
2023/09/01 05:02:00;;;;;;;11.93;11.43;;;;;;;;;;5075125;28;20054;-64
2023/09/01 05:04:26;;;;;;;11.80;11.30;;;;;;;;;;5081704;28;20055;-64
2023/09/01 05:06:51;;;;;;;12.23;11.73;;;;;;;;;;5088215;28;20376;-64
2023/09/01 05:09:17;;;;;;;12.13;11.63;;;;;;;;;;5083300;28;20020;-63
2023/09/01 05:11:42;;;;;;;12.38;11.85;;;;;;;;;;5083985;28;20035;-63
2023/09/01 05:14:07;;;;;;;11.70;11.20;;;;;;;;;;5081137;28;20024;-64
2023/09/01 05:16:33;;;;;;;11.97;11.47;;;;;;;;;;5076920;28;20708;-63
2023/09/01 05:18:58;;;;;;;12.18;11.60;;;;;;;;;;5082821;28;20272;-64
2023/09/01 05:21:23;;;;;;;11.77;11.27;;;;;;;;;;5082363;28;20590;-64
2023/09/01 05:23:49;;;;;;;12.00;11.50;;;;;;;;;;5083954;28;20399;-64
2023/09/01 05:26:14;;;;;;;12.07;11.57;;;;;;;;;;5080978;28;20252;-63
2023/09/01 05:28:39;;;;;;;11.70;11.20;;;;;;;;;;5088667;28;20375;-64
2023/09/01 05:31:05;;;;;;;12.00;11.50;;;;;;;;;;5084529;28;20241;-63
2023/09/01 05:33:30;;;;;;;12.07;11.57;;;;;;;;;;5086704;28;20027;-62
2023/09/01 05:35:57;;;;;;;12.00;11.50;;;;;;;;;;5086245;28;20016;-62
2023/09/01 05:38:22;;;;;;;12.10;11.60;;;;;;;;;;5083720;28;20077;-63
2023/09/01 05:40:56;;;;;;;12.07;11.57;;;;;;;;;;5089008;28;20032;-63
2023/09/01 05:43:23;;;;;;;;;;;;;;;;;;5086117;28;20248;-62
2023/09/01 05:45:48;;;;;;;11.88;11.38;;;;;;;;;;5086020;28;19922;-64
2023/09/01 05:48:13;;;;;;;12.30;11.77;;;;;;;;;;5081767;28;20115;-63
2023/09/01 05:50:38;;;;;;;12.20;11.70;;;;;;;;;;5084045;28;20505;-64
2023/09/01 05:53:04;;;;;;;12.00;11.50;;;;;;;;;;5080429;28;20437;-63
2023/09/01 05:55:29;;;;;;;12.32;11.82;;;;;;;;;;5085123;28;20111;-64
2023/09/01 05:57:55;;;;;;;12.18;11.68;;;;;;;;;;5082026;28;20021;-58
2023/09/01 06:00:20;;;;;;;11.82;11.32;;;;;;;;;;5083952;28;20472;-60
2023/09/01 06:02:46;;;;;;;12.18;11.68;;;;;;;;;;5085007;28;20052;-59
2023/09/01 06:05:11;;;;;;;12.25;11.75;;;;;;;;;;5084077;28;20518;-59
2023/09/01 06:07:37;;;;;;;12.23;11.73;;;;;;;;;;5080993;28;20020;-61
2023/09/01 06:10:03;;;;;;;12.13;11.63;;;;;;;;;;5084931;28;20078;-60
2023/09/01 06:12:28;;;;;;;12.05;11.55;;;;;;;;;;5082819;28;20034;-59
2023/09/01 06:14:54;;;;;;;12.13;11.63;;;;;;;;;;5086284;28;20476;-60
2023/09/01 06:17:19;;;;;;;12.00;11.50;;;;;;;;;;5084749;27;20031;-60
2023/09/01 06:19:44;;;;;;;12.17;11.67;;;;;;;;;;5087241;28;20077;-58
2023/09/01 06:22:10;;;;;;;12.07;11.57;;;;;;;;;;5083226;28;20338;-61
2023/09/01 06:24:35;;;;;;;12.10;11.60;;;;;;;;;;5071251;28;20027;-61
2023/09/01 06:27:00;;;;;;;11.95;11.45;;;;;;;;;;5083357;28;20035;-63
2023/09/01 06:29:25;;;;;;;12.23;11.73;;;;;;;;;;5077879;28;20031;-61
2023/09/01 06:31:51;;;;;;;12.30;11.80;;;;;;;;;;5080650;28;20032;-61
2023/09/01 06:34:16;;;;;;;12.30;11.80;;;;;;;;;;5077132;28;20282;-61
2023/09/01 06:36:41;;;;;;;12.17;11.67;;;;;;;;;;5075888;28;20142;-62
2023/09/01 06:39:07;;;;;;;12.10;11.60;;;;;;;;;;5074539;28;20024;-62
2023/09/01 06:41:33;;;;;;;11.70;11.20;;;;;;;;;;5079176;28;20287;-63
2023/09/01 06:44:00;;;;;;;12.00;11.50;;;;;;;;;;5077221;28;21001;-62
2023/09/01 06:46:25;;;;;;;12.07;11.57;;;;;;;;;;5079513;28;20035;-62
2023/09/01 06:48:50;;;;;;;12.18;11.68;;;;;;;;;;5084829;28;20047;-62
2023/09/01 06:51:16;;;;;;;12.30;11.80;;;;;;;;;;5082811;28;20016;-64
2023/09/01 06:53:41;;;;;;;12.10;11.60;;;;;;;;;;5082229;28;20023;-62
2023/09/01 06:56:07;;;;;;;12.07;11.57;;;;;;;;;;5078205;28;20500;-61
2023/09/01 06:58:32;;;;;;;12.15;11.65;;;;;;;;;;5074984;28;20032;-62
2023/09/01 07:01:05;;;;;;;11.87;11.37;;;;;;;;;;5084374;28;20020;-61
2023/09/01 07:03:30;;;;;;;11.80;11.30;;;;;;;;;;5080800;28;20055;-61
2023/09/01 07:05:57;;;;;;;12.33;11.83;;;;;;;;;;5081154;28;20025;-62
2023/09/01 07:08:23;;;;;;;12.18;11.68;;;;;;;;;;5079417;28;20467;-61
2023/09/01 07:10:48;;;;;;;12.20;11.70;;;;;;;;;;5079103;28;20028;-62
2023/09/01 07:13:13;;;;;;;12.35;11.85;;;;;;;;;;5078330;28;20021;-63
2023/09/01 07:15:39;;;;;;;12.25;11.75;;;;;;;;;;5076260;28;20078;-61
2023/09/01 07:18:04;;;;;;;12.10;11.60;;;;;;;;;;5081356;28;20127;-61
2023/09/01 07:20:29;;;;;;;12.02;11.52;;;;;;;;;;5075335;28;20028;-63
2023/09/01 07:22:55;;;;;;;12.30;11.80;;;;;;;;;;5079561;28;20063;-62
2023/09/01 07:25:20;;;;;;;12.07;11.57;;;;;;;;;;5079375;28;20360;-62
2023/09/01 07:27:46;;;;;;;11.63;11.13;;;;;;;;;;5076139;28;20028;-63
2023/09/01 07:30:13;;;;;;;11.95;11.45;;;;;;;;;;5074989;28;21091;-63
2023/09/01 07:32:40;;;;;;;11.95;11.45;;;;;;;;;;5081437;28;20031;-62
2023/09/01 07:35:05;;;;;;;12.10;11.60;;;;;;;;;;5077093;28;20028;-61
2023/09/01 07:37:31;;;;;;;12.00;11.50;;;;;;;;;;5079501;28;20038;-62
2023/09/01 07:39:56;;;;;;;12.05;11.55;;;;;;;;;;5076029;28;20057;-63
2023/09/01 07:42:22;;;;;;;12.03;11.53;;;;;;;;;;5078376;28;20023;-62
2023/09/01 07:44:48;;;;;;;11.82;11.32;;;;;;;;;;5077755;28;20333;-63
2023/09/01 07:47:13;;;;;;;12.10;11.60;;;;;;;;;;5076615;28;20030;-62
2023/09/01 07:49:39;;;;;;;11.93;11.43;;;;;;;;;;5077560;28;20442;-61
2023/09/01 07:52:04;;;;;;;12.27;11.77;;;;;;;;;;5081605;28;20038;-62
2023/09/01 07:54:29;;;;;;;12.23;11.73;;;;;;;;;;5080203;28;20077;-61
2023/09/01 07:56:55;;;;;;;12.10;11.60;;;;;;;;;;5078098;28;20264;-62
2023/09/01 07:59:20;;;;;;;12.07;11.57;;;;;;;;;;5077813;28;20030;-61
2023/09/01 08:01:46;;;;;;;11.87;11.37;;;;;;;;;;5075600;28;20479;-63
2023/09/01 08:04:11;;;;;;;12.07;11.57;;;;;;;;;;5076995;28;20353;-63
2023/09/01 08:06:36;;;;;;;12.02;11.52;;;;;;;;;;5082267;28;20032;-64
2023/09/01 08:09:03;;;;;;;12.30;11.80;;;;;;;;;;5080291;28;20036;-62
2023/09/01 08:11:28;;;;;;;12.27;11.77;;;;;;;;;;5076924;28;20431;-63
2023/09/01 08:13:53;;;;;;;12.13;11.63;;;;;;;;;;5083838;28;20012;-62
2023/09/01 08:16:19;;;;;;;12.70;12.10;;;;;;;;;;5077357;28;20030;-65
2023/09/01 08:18:44;;;;;;;12.60;12.00;;;;;;;;;;5081307;28;20027;-63
2023/09/01 08:21:10;;;;;;;12.23;11.73;;;;;;;;;;5078068;28;20387;-63
2023/09/01 08:23:35;;;;;;;12.23;11.73;;;;;;;;;;5079722;28;20066;-63
2023/09/01 08:26:07;;;;;;;12.63;12.03;;;;;;;;;;5078924;28;20034;-62
2023/09/01 08:28:32;;;;;;;12.27;11.77;;;;;;;;;;5076274;28;20289;-63
2023/09/01 08:31:01;;;;;;;12.25;11.75;;;;;;;;;;5075967;28;20028;-64
2023/09/01 08:33:26;;;;;;;12.80;12.20;;;;;;;;;;5075093;28;20020;-64
2023/09/01 08:35:52;;;;;;;12.25;11.75;;;;;;;;;;5079142;28;20031;-63
2023/09/01 08:38:18;;;;;;;12.23;11.73;;;;;;;;;;5078951;28;20475;-64
2023/09/01 08:40:43;;;;;;;12.60;12.00;;;;;;;;;;5077058;28;20036;-63
2023/09/01 08:43:09;;;;;;;12.40;11.85;;;;;;;;;;5084578;28;20072;-62
2023/09/01 08:45:35;;;;;;;12.23;11.73;;;;;;;;;;5077465;28;20496;-63
2023/09/01 08:48:03;;;;;;;12.63;12.02;;;;;;;;;;5081809;28;20028;-64
2023/09/01 08:50:29;;;;;;;12.70;12.10;;;;;;;;;;5078716;28;20391;-63
2023/09/01 08:52:55;;;;;;;12.40;11.88;;;;;;;;;;5073762;28;20028;-64
2023/09/01 08:55:20;;;;;;;12.68;12.07;;;;;;;;;;5076361;28;20116;-65
2023/09/01 08:57:48;;;;;;;12.38;11.85;;;;;;;;;;5075902;28;20027;-63
2023/09/01 09:00:13;;;;;;;12.38;11.82;;;;;;;;;;5083309;28;20391;-63
2023/09/01 09:02:40;;;;;;;12.20;11.70;;;;;;;;;;5083371;28;20036;-63
2023/09/01 09:05:06;;;;;;;12.02;11.52;;;;;;;;;;5081874;28;20023;-63
2023/09/01 09:07:32;;;;;;;12.10;11.60;;;;;;;;;;5071735;28;20069;-64
2023/09/01 09:09:58;;;;;;;12.02;11.52;;;;;;;;;;5075201;28;20028;-65
2023/09/01 09:12:33;;;;;;;12.65;12.05;;;;;;;;;;5075575;28;20028;-61
2023/09/01 09:14:58;;;;;;;12.20;11.70;;;;;;;;;;5079517;28;20080;-62
2023/09/01 09:17:37;;;;;;;12.05;11.55;;;;;;;;;;5079094;28;20503;-60
2023/09/01 09:20:04;;;;;;;12.13;11.63;;;;;;;;;;5080630;28;20037;-61
2023/09/01 09:22:29;;;;;;;12.10;11.60;;;;;;;;;;5070439;28;20034;-64
2023/09/01 09:24:55;;;;;;;12.10;11.60;;;;;;;;;;5072864;28;20025;-61
2023/09/01 09:27:22;;;;;;;12.73;12.13;;;;;;;;;;5077443;28;20596;-61
2023/09/01 09:29:48;;;;;;;12.30;11.80;;;;;;;;;;5076939;28;20035;-61
2023/09/01 09:32:23;;;;;;;12.13;11.63;;;;;;;;;;5073945;28;20028;-60
2023/09/01 09:35:11;;;;;;;12.30;11.80;;;;;;;;;;5075298;28;20118;-62
2023/09/01 09:37:39;;;;;;;12.20;11.70;;;;;;;;;;5075611;28;20016;-61
2023/09/01 09:40:14;;;;;;;12.10;11.60;;;;;;;;;;5076396;28;20016;-60
2023/09/01 09:42:40;;;;;;;12.00;11.50;;;;;;;;;;5074100;28;20150;-60
2023/09/01 09:45:20;;;;;;;11.73;11.23;;;;;;;;;;5075009;28;20117;-60
2023/09/01 09:47:45;;;;;;;12.52;11.93;;;;;;;;;;5077023;28;20040;-60
2023/09/01 09:50:11;;;;;;;12.07;11.57;;;;;;;;;;5079653;28;20016;-60
2023/09/01 09:52:37;;;;;;;12.30;11.77;;;;;;;;;;5076348;28;20024;-60
2023/09/01 09:55:05;;;;;;;12.13;11.63;;;;;;;;;;5077842;28;20032;-62
2023/09/01 09:57:31;;;;;;;12.20;11.70;;;;;;;;;;5077010;28;20510;-61
2023/09/01 10:00:08;;;;;;;11.70;11.20;;;;;;;;;;5076067;28;20043;-60
2023/09/01 10:02:39;;;;;;;12.00;11.50;;;;;;;;;;5074837;28;20066;-63
2023/09/01 10:05:04;;;;;;;12.23;11.73;;;;;;;;;;5081105;28;20111;-61
2023/09/01 10:07:30;;;;;;;12.18;11.68;;;;;;;;;;5076354;28;20127;-61
2023/09/01 10:09:56;;;;;;;12.10;11.60;;;;;;;;;;5077948;28;20107;-62
2023/09/01 10:12:23;;;;;;;11.50;11.00;;;;;;;;;;5081305;28;20020;-62
2023/09/01 10:14:50;;;;;;;12.57;11.98;;;;;;;;;;5088336;28;20023;-62
2023/09/01 10:17:16;;;;;;;12.32;11.82;;;;;;;;;;5085021;28;20073;-62
2023/09/01 10:19:42;;;;;;;12.27;11.77;;;;;;;;;;5084296;28;20038;-62
2023/09/01 10:22:07;;;;;;;11.85;11.35;;;;;;;;;;5082398;28;20035;-61
2023/09/01 10:24:32;;;;;;;11.95;11.45;;;;;;;;;;5082190;28;20387;-62
2023/09/01 10:27:07;;;;;;;12.03;11.53;;;;;;;;;;5079643;28;20630;-61
2023/09/01 10:29:36;;;;;;;12.35;11.82;;;;;;;;;;5078154;28;20280;-61
2023/09/01 10:32:14;;;;;;;11.90;11.40;;;;;;;;;;5077603;28;20521;-61
2023/09/01 10:34:39;;;;;;;11.80;11.30;;;;;;;;;;5080700;28;20673;-62
2023/09/01 10:37:34;;;;;;;12.17;11.67;;;;;;;;;;5080002;28;20084;-62
2023/09/01 10:40:00;;;;;;;12.10;11.60;;;;;;;;;;5069390;28;20384;-62
2023/09/01 10:42:38;;;;;;;12.10;11.60;;;;;;;;;;5080989;28;20103;-61
2023/09/01 10:45:06;;;;;;;11.60;11.10;;;;;;;;;;5079454;28;20108;-60
2023/09/01 10:47:32;;;;;;;11.88;11.38;;;;;;;;;;5077598;28;20029;-62
2023/09/01 10:49:57;;;;;;;12.10;11.60;;;;;;;;;;5076936;28;20054;-63
2023/09/01 10:52:23;;;;;;;12.00;11.50;;;;;;;;;;5078312;28;20347;-63
2023/09/01 10:55:05;;;;;;;12.15;11.65;;;;;;;;;;5077522;28;20331;-62
2023/09/01 10:57:43;;;;;;;12.10;11.60;;;;;;;;;;5077667;28;20169;-62
2023/09/01 11:00:26;;;;;;;11.80;11.30;;;;;;;;;;5078456;28;20150;-63
2023/09/01 11:02:51;;;;;;;12.18;11.68;;;;;;;;;;5077283;28;20121;-62
2023/09/01 11:05:35;;;;;;;12.00;11.50;;;;;;;;;;5083078;28;20426;-63
2023/09/01 11:08:15;;;;;;;12.25;11.75;;;;;;;;;;5079315;28;20035;-62
2023/09/01 11:10:41;;;;;;;12.20;11.70;;;;;;;;;;5080797;28;20040;-62
2023/09/01 11:13:32;;;;;;;12.25;11.75;;;;;;;;;;5075414;28;20369;-62
2023/09/01 11:16:06;;;;;;;11.93;11.43;;;;;;;;;;5078650;28;20056;-61
2023/09/01 11:18:32;;;;;;;12.30;11.80;;;;;;;;;;5080706;28;20085;-63
2023/09/01 11:21:00;;;;;;;12.13;11.63;;;;;;;;;;5081852;28;20484;-61
2023/09/01 11:23:27;;;;;;;12.00;11.50;;;;;;;;;;5073142;28;20088;-60
2023/09/01 11:25:59;;;;;;;11.70;11.20;;;;;;;;;;5079676;28;20433;-61
2023/09/01 11:28:25;;;;;;;11.80;11.30;;;;;;;;;;5072495;28;20111;-61
2023/09/01 11:31:04;;;;;;;11.80;11.30;;;;;;;;;;5081532;28;20868;-60
2023/09/01 11:33:34;;;;;;;12.00;11.50;;;;;;;;;;5081004;28;20020;-63
2023/09/01 11:36:06;;;;;;;12.55;11.95;;;;;;;;;;5080437;28;20012;-61
2023/09/01 11:38:32;;;;;;;11.70;11.20;;;;;;;;;;5085371;28;20017;-67
2023/09/01 11:40:58;;;;;;;12.18;11.68;;;;;;;;;;5082789;28;20024;-62
2023/09/01 11:43:24;;;;;;;11.88;11.38;;;;;;;;;;5085903;28;20504;-59
2023/09/01 11:45:50;;;;;;;12.00;11.50;;;;;;;;;;5076358;28;20039;-61
2023/09/01 11:48:28;;;;;;;12.20;11.70;;;;;;;;;;5082652;28;20016;-61
2023/09/01 11:50:54;;;;;;;11.90;11.40;;;;;;;;;;5085432;28;20012;-60
2023/09/01 11:53:37;;;;;;;11.60;11.10;;;;;;;;;;5084206;28;20043;-60
2023/09/01 11:56:22;;;;;;;11.40;10.90;;;;;;;;;;5089597;28;20059;-59
2023/09/01 11:58:55;;;;;;;12.02;11.52;;;;;;;;;;5086443;28;20036;-60
2023/09/01 12:01:22;;;;;;;11.70;11.20;;;;;;;;;;5078095;28;20099;-61
2023/09/01 12:03:48;;;;;;;11.60;11.10;;;;;;;;;;5088759;28;20052;-61
2023/09/01 12:06:24;;;;;;;11.82;11.32;;;;;;;;;;5081860;28;20509;-60
2023/09/01 12:08:52;;;;;;;11.73;11.23;;;;;;;;;;5081449;28;20067;-60
2023/09/01 12:11:18;;;;;;;11.85;11.35;;;;;;;;;;5086651;28;20020;-60
2023/09/01 12:13:43;;;;;;;11.48;10.98;;;;;;;;;;5083698;28;20039;-61
2023/09/01 12:16:17;;;;;;;12.13;11.63;;;;;;;;;;5082192;28;20020;-61
2023/09/01 12:18:43;;;;;;;11.45;10.95;;;;;;;;;;5079340;28;20034;-60
2023/09/01 12:21:09;;;;;;;12.60;12.00;;;;;;;;;;5077398;28;20032;-65
2023/09/01 12:23:36;;;;;;;11.98;11.48;;;;;;;;;;5079859;28;20075;-64
2023/09/01 12:26:02;;;;;;;11.93;11.43;;;;;;;;;;5076233;28;20060;-63
2023/09/01 12:28:28;;;;;;;12.65;12.05;;;;;;;;;;5078510;28;20028;-60
2023/09/01 12:30:54;;;;;;;11.85;11.35;;;;;;;;;;5080250;28;20471;-63
2023/09/01 12:33:19;;;;;;;11.90;11.40;;;;;;;;;;5081143;28;20032;-63
2023/09/01 12:35:45;;;;;;;11.77;11.27;;;;;;;;;;5077393;28;20042;-62
2023/09/01 12:38:10;;;;;;;12.00;11.50;;;;;;;;;;5083924;28;20908;-63
2023/09/01 12:40:35;;;;;;;11.57;11.07;;;;;;;;;;5078041;28;20025;-63
2023/09/01 12:43:02;;;;;;;11.90;11.40;;;;;;;;;;5084564;28;20077;-65
2023/09/01 12:45:27;;;;;;;11.93;11.43;;;;;;;;;;5078379;28;20319;-63
2023/09/01 12:47:52;;;;;;;11.63;11.13;;;;;;;;;;5080521;28;20017;-64
2023/09/01 12:50:18;;;;;;;11.47;10.97;;;;;;;;;;5082762;28;20792;-64
2023/09/01 12:52:43;;;;;;;11.50;11.00;;;;;;;;;;5082502;28;20256;-64
2023/09/01 12:55:08;;;;;;;11.83;11.33;;;;;;;;;;5076720;28;20022;-65
2023/09/01 12:57:34;;;;;;;12.00;11.50;;;;;;;;;;5081445;28;20605;-64
2023/09/01 12:59:59;;;;;;;12.10;11.60;;;;;;;;;;5078109;28;20544;-63
2023/09/01 13:02:24;;;;;;;11.88;11.38;;;;;;;;;;5080141;28;20193;-64
2023/09/01 13:04:55;;;;;;;11.95;11.45;;;;;;;;;;5076986;28;20081;-63
2023/09/01 13:07:20;;;;;;;12.02;11.52;;;;;;;;;;5073434;28;20516;-63
2023/09/01 13:09:45;;;;;;;12.00;11.50;;;;;;;;;;5075400;28;20032;-65
2023/09/01 13:12:10;;;;;;;12.03;11.53;;;;;;;;;;5076730;28;20099;-64
2023/09/01 13:14:37;;;;;;;12.27;11.77;;;;;;;;;;5081233;28;20248;-65
2023/09/01 13:17:03;;;;;;;12.30;11.80;;;;;;;;;;5081433;28;20748;-65
2023/09/01 13:19:28;;;;;;;12.07;11.57;;;;;;;;;;5079740;28;20028;-65
2023/09/01 13:21:53;;;;;;;12.40;11.85;;;;;;;;;;5073706;28;20031;-62
2023/09/01 13:24:19;;;;;;;12.30;11.80;;;;;;;;;;5081452;28;20032;-64
2023/09/01 13:26:44;;;;;;;11.90;11.40;;;;;;;;;;5082611;28;20271;-64
2023/09/01 13:29:09;;;;;;;12.25;11.75;;;;;;;;;;5083522;28;20115;-65
2023/09/01 13:31:34;;;;;;;12.18;11.68;;;;;;;;;;5082198;28;20012;-63
2023/09/01 13:34:00;;;;;;;11.98;11.48;;;;;;;;;;5079650;28;20035;-64
2023/09/01 13:36:26;;;;;;;12.53;11.93;;;;;;;;;;5079862;28;20145;-63
2023/09/01 13:38:52;;;;;;;12.15;11.65;;;;;;;;;;5078608;28;20272;-68
2023/09/01 13:41:19;;;;;;;12.23;11.73;;;;;;;;;;5082904;28;20051;-62
2023/09/01 13:43:44;;;;;;;12.05;11.55;;;;;;;;;;5079420;28;20021;-63
2023/09/01 13:46:26;;;;;;;12.07;11.57;;;;;;;;;;5082208;28;20048;-63
2023/09/01 13:48:55;;;;;;;11.80;11.30;;;;;;;;;;5083127;28;21323;-63
2023/09/01 13:51:24;;;;;;;12.13;11.63;;;;;;;;;;5080279;28;20395;-63
2023/09/01 13:53:53;;;;;;;11.95;11.45;;;;;;;;;;5077359;28;20028;-65
2023/09/01 13:56:18;;;;;;;11.90;11.40;;;;;;;;;;5081386;28;20048;-65
2023/09/01 13:58:44;;;;;;;12.27;11.77;;;;;;;;;;5078431;28;20130;-64
2023/09/01 14:01:09;;;;;;;11.90;11.40;;;;;;;;;;5081476;28;20024;-61
2023/09/01 14:03:34;;;;;;;11.43;10.93;;;;;;;;;;5085343;28;20079;-62
2023/09/01 14:06:00;;;;;;;12.00;11.50;;;;;;;;;;5083277;28;20028;-61
2023/09/01 14:08:27;;;;;;;11.68;11.18;;;;;;;;;;5084501;28;20495;-62
2023/09/01 14:10:53;;;;;;;11.15;10.65;;;;;;;;;;5086716;28;20024;-61
2023/09/01 14:13:19;;;;;;;11.80;11.30;;;;;;;;;;5084043;28;20029;-60
2023/09/01 14:15:46;;;;;;;11.48;10.98;;;;;;;;;;5088237;28;20041;-61
2023/09/01 14:18:11;;;;;;;11.48;10.98;;;;;;;;;;5090791;28;20028;-60